sensor_id;sensor_type;location;lat;lon;timestamp;pressure;altitude;pressure_sealevel;temperature;humidity
36190;BME280;22232;50.914;13.858;2023-05-12T00:02:13;97769.00;;;13.69;96.68
36190;BME280;22232;50.914;13.858;2023-05-12T00:04:41;97777.59;;;13.71;88.50
36190;BME280;22232;50.914;13.858;2023-05-12T00:07:08;97780.84;;;13.73;90.27
36190;BME280;22232;50.914;13.858;2023-05-12T00:09:36;97782.69;;;13.72;94.47
36190;BME280;22232;50.914;13.858;2023-05-12T00:12:04;97773.25;;;13.65;99.04
36190;BME280;22232;50.914;13.858;2023-05-12T00:14:31;97782.28;;;13.59;100.00
36190;BME280;22232;50.914;13.858;2023-05-12T00:16:59;97776.63;;;13.55;100.00
36190;BME280;22232;50.914;13.858;2023-05-12T00:19:26;97780.63;;;13.52;100.00
36190;BME280;22232;50.914;13.858;2023-05-12T00:21:54;97776.88;;;13.53;100.00
36190;BME280;22232;50.914;13.858;2023-05-12T00:24:21;97781.72;;;13.57;100.00
36190;BME280;22232;50.914;13.858;2023-05-12T00:26:49;97779.03;;;13.57;95.41
36190;BME280;22232;50.914;13.858;2023-05-12T00:29:17;97779.91;;;13.62;90.57
36190;BME280;22232;50.914;13.858;2023-05-12T00:31:44;97778.97;;;13.73;84.49
36190;BME280;22232;50.914;13.858;2023-05-12T00:34:12;97772.09;;;13.83;81.99
36190;BME280;22232;50.914;13.858;2023-05-12T00:36:39;97775.66;;;13.88;80.87
36190;BME280;22232;50.914;13.858;2023-05-12T00:39:07;97778.88;;;13.90;80.45
36190;BME280;22232;50.914;13.858;2023-05-12T00:41:35;97781.88;;;13.94;82.20
36190;BME280;22232;50.914;13.858;2023-05-12T00:44:02;97774.06;;;13.92;80.96
36190;BME280;22232;50.914;13.858;2023-05-12T00:46:30;97776.75;;;13.92;80.74
36190;BME280;22232;50.914;13.858;2023-05-12T00:48:58;97776.69;;;13.87;83.19
36190;BME280;22232;50.914;13.858;2023-05-12T00:51:26;97780.22;;;13.88;82.25
36190;BME280;22232;50.914;13.858;2023-05-12T00:53:54;97780.75;;;13.90;83.49
36190;BME280;22232;50.914;13.858;2023-05-12T00:56:24;97773.47;;;13.85;86.47
36190;BME280;22232;50.914;13.858;2023-05-12T00:58:52;97771.59;;;13.86;89.25
36190;BME280;22232;50.914;13.858;2023-05-12T01:01:19;97780.84;;;13.73;94.68
36190;BME280;22232;50.914;13.858;2023-05-12T01:03:51;97777.53;;;13.66;100.00
36190;BME280;22232;50.914;13.858;2023-05-12T01:06:32;97781.19;;;13.54;99.48
36190;BME280;22232;50.914;13.858;2023-05-12T01:09:05;97765.78;;;13.45;99.43
36190;BME280;22232;50.914;13.858;2023-05-12T01:11:32;97772.50;;;13.47;97.82
36190;BME280;22232;50.914;13.858;2023-05-12T01:14:00;97772.50;;;13.47;95.13
36190;BME280;22232;50.914;13.858;2023-05-12T01:16:34;97777.06;;;13.47;92.83
36190;BME280;22232;50.914;13.858;2023-05-12T01:19:05;97780.03;;;13.50;89.37
36190;BME280;22232;50.914;13.858;2023-05-12T01:21:37;97776.81;;;13.48;89.41
36190;BME280;22232;50.914;13.858;2023-05-12T01:24:07;97773.31;;;13.48;90.96
36190;BME280;22232;50.914;13.858;2023-05-12T01:26:36;97777.06;;;13.47;93.29
36190;BME280;22232;50.914;13.858;2023-05-12T01:29:05;97773.00;;;13.44;95.26
36190;BME280;22232;50.914;13.858;2023-05-12T01:31:34;97774.06;;;13.43;96.86
36190;BME280;22232;50.914;13.858;2023-05-12T01:34:02;97776.19;;;13.41;94.10
36190;BME280;22232;50.914;13.858;2023-05-12T01:36:30;97777.00;;;13.42;91.13
36190;BME280;22232;50.914;13.858;2023-05-12T01:38:58;97779.66;;;13.42;90.42
36190;BME280;22232;50.914;13.858;2023-05-12T01:41:25;97774.38;;;13.47;89.78
36190;BME280;22232;50.914;13.858;2023-05-12T01:43:53;97775.94;;;13.43;93.37
36190;BME280;22232;50.914;13.858;2023-05-12T01:46:21;97777.00;;;13.42;93.73
36190;BME280;22232;50.914;13.858;2023-05-12T01:48:49;97782.03;;;13.38;94.20
36190;BME280;22232;50.914;13.858;2023-05-12T01:51:16;97773.69;;;13.35;94.51
36190;BME280;22232;50.914;13.858;2023-05-12T01:53:44;97771.81;;;13.35;90.68
36190;BME280;22232;50.914;13.858;2023-05-12T01:56:12;97775.66;;;13.39;96.48
36190;BME280;22232;50.914;13.858;2023-05-12T01:58:40;97776.69;;;13.38;96.06
36190;BME280;22232;50.914;13.858;2023-05-12T02:01:08;97780.34;;;13.32;94.36
36190;BME280;22232;50.914;13.858;2023-05-12T02:03:35;97783.81;;;13.27;95.02
36190;BME280;22232;50.914;13.858;2023-05-12T02:06:11;97792.13;;;13.31;92.59
36190;BME280;22232;50.914;13.858;2023-05-12T02:08:39;97788.16;;;13.34;93.27
36190;BME280;22232;50.914;13.858;2023-05-12T02:11:07;97790.28;;;13.31;93.38
36190;BME280;22232;50.914;13.858;2023-05-12T02:13:35;97794.56;;;13.32;91.98
36190;BME280;22232;50.914;13.858;2023-05-12T02:16:04;97785.72;;;13.32;91.87
36190;BME280;22232;50.914;13.858;2023-05-12T02:18:32;97782.81;;;13.34;91.77
36190;BME280;22232;50.914;13.858;2023-05-12T02:20:59;97791.88;;;13.32;92.93
36190;BME280;22232;50.914;13.858;2023-05-12T02:23:28;97787.59;;;13.31;92.05
36190;BME280;22232;50.914;13.858;2023-05-12T02:25:56;97787.00;;;13.29;92.14
36190;BME280;22232;50.914;13.858;2023-05-12T02:28:23;97788.88;;;13.29;94.46
36190;BME280;22232;50.914;13.858;2023-05-12T02:30:52;97779.75;;;13.25;95.88
36190;BME280;22232;50.914;13.858;2023-05-12T02:33:20;97786.13;;;13.24;95.68
36190;BME280;22232;50.914;13.858;2023-05-12T02:35:49;97780.22;;;13.22;95.33
36190;BME280;22232;50.914;13.858;2023-05-12T02:38:18;97783.88;;;13.16;97.97
36190;BME280;22232;50.914;13.858;2023-05-12T02:40:45;97792.97;;;13.15;96.74
36190;BME280;22232;50.914;13.858;2023-05-12T02:43:14;97787.84;;;13.13;96.58
36190;BME280;22232;50.914;13.858;2023-05-12T02:45:42;97784.88;;;13.09;97.23
36190;BME280;22232;50.914;13.858;2023-05-12T02:48:10;97786.41;;;13.05;99.02
36190;BME280;22232;50.914;13.858;2023-05-12T02:50:37;97785.28;;;13.01;100.00
36190;BME280;22232;50.914;13.858;2023-05-12T02:53:05;97786.34;;;13.00;100.00
36190;BME280;22232;50.914;13.858;2023-05-12T02:55:33;97782.53;;;12.96;100.00
36190;BME280;22232;50.914;13.858;2023-05-12T02:58:00;97778.00;;;12.97;100.00
36190;BME280;22232;50.914;13.858;2023-05-12T03:00:28;97784.66;;;12.94;100.00
36190;BME280;22232;50.914;13.858;2023-05-12T03:02:55;97777.94;;;12.92;100.00
36190;BME280;22232;50.914;13.858;2023-05-12T03:05:23;97785.38;;;12.90;100.00
36190;BME280;22232;50.914;13.858;2023-05-12T03:07:51;97777.84;;;12.86;100.00
36190;BME280;22232;50.914;13.858;2023-05-12T03:10:18;97786.38;;;12.83;100.00
36190;BME280;22232;50.914;13.858;2023-05-12T03:12:46;97782.00;;;12.77;100.00
36190;BME280;22232;50.914;13.858;2023-05-12T03:15:14;97781.19;;;12.77;100.00
36190;BME280;22232;50.914;13.858;2023-05-12T03:17:42;97785.97;;;12.75;100.00
36190;BME280;22232;50.914;13.858;2023-05-12T03:20:10;97790.28;;;12.76;100.00
36190;BME280;22232;50.914;13.858;2023-05-12T03:22:38;97783.06;;;12.76;100.00
36190;BME280;22232;50.914;13.858;2023-05-12T03:25:08;97789.03;;;12.83;100.00
36190;BME280;22232;50.914;13.858;2023-05-12T03:27:36;97790.50;;;12.91;100.00
36190;BME280;22232;50.914;13.858;2023-05-12T03:30:04;97790.06;;;12.99;100.00
36190;BME280;22232;50.914;13.858;2023-05-12T03:32:35;97794.28;;;13.12;100.00
36190;BME280;22232;50.914;13.858;2023-05-12T03:35:08;97791.34;;;13.30;100.00
36190;BME280;22232;50.914;13.858;2023-05-12T03:37:36;97788.88;;;13.51;100.00
36190;BME280;22232;50.914;13.858;2023-05-12T03:40:04;97791.41;;;13.58;100.00
36190;BME280;22232;50.914;13.858;2023-05-12T03:42:32;97788.34;;;13.49;100.00
36190;BME280;22232;50.914;13.858;2023-05-12T03:45:00;97786.84;;;13.36;100.00
36190;BME280;22232;50.914;13.858;2023-05-12T03:47:27;97790.13;;;13.21;100.00
36190;BME280;22232;50.914;13.858;2023-05-12T03:49:55;97789.97;;;13.11;100.00
36190;BME280;22232;50.914;13.858;2023-05-12T03:52:23;97799.78;;;13.05;100.00
36190;BME280;22232;50.914;13.858;2023-05-12T03:54:51;97802.97;;;13.02;100.00
36190;BME280;22232;50.914;13.858;2023-05-12T03:57:19;97788.03;;;13.06;100.00
36190;BME280;22232;50.914;13.858;2023-05-12T03:59:47;97792.91;;;13.09;100.00
36190;BME280;22232;50.914;13.858;2023-05-12T04:02:14;97794.78;;;13.09;100.00
36190;BME280;22232;50.914;13.858;2023-05-12T04:04:42;97796.16;;;13.12;100.00
36190;BME280;22232;50.914;13.858;2023-05-12T04:07:10;97799.38;;;13.14;100.00
36190;BME280;22232;50.914;13.858;2023-05-12T04:09:37;97796.47;;;13.15;100.00
36190;BME280;22232;50.914;13.858;2023-05-12T04:12:05;97798.34;;;13.15;100.00
36190;BME280;22232;50.914;13.858;2023-05-12T04:14:33;97802.63;;;13.16;100.00
36190;BME280;22232;50.914;13.858;2023-05-12T04:17:09;97804.22;;;13.17;100.00
36190;BME280;22232;50.914;13.858;2023-05-12T04:19:37;97802.69;;;13.21;100.00
36190;BME280;22232;50.914;13.858;2023-05-12T04:22:05;97806.03;;;13.28;100.00
36190;BME280;22232;50.914;13.858;2023-05-12T04:24:32;97806.59;;;13.30;100.00
36190;BME280;22232;50.914;13.858;2023-05-12T04:27:00;97807.44;;;13.36;100.00
36190;BME280;22232;50.914;13.858;2023-05-12T04:29:28;97794.13;;;13.41;100.00
36190;BME280;22232;50.914;13.858;2023-05-12T04:31:55;97805.72;;;13.46;100.00
36190;BME280;22232;50.914;13.858;2023-05-12T04:34:23;97800.97;;;13.53;100.00
36190;BME280;22232;50.914;13.858;2023-05-12T04:36:51;97801.72;;;13.71;100.00
36190;BME280;22232;50.914;13.858;2023-05-12T04:39:19;97807.47;;;13.80;100.00
36190;BME280;22232;50.914;13.858;2023-05-12T04:41:47;97808.06;;;13.87;100.00
36190;BME280;22232;50.914;13.858;2023-05-12T04:44:15;97800.31;;;14.12;100.00
36190;BME280;22232;50.914;13.858;2023-05-12T04:46:43;97806.59;;;14.55;100.00
36190;BME280;22232;50.914;13.858;2023-05-12T04:49:10;97798.34;;;14.62;100.00
36190;BME280;22232;50.914;13.858;2023-05-12T04:51:38;97802.09;;;14.61;100.00
36190;BME280;22232;50.914;13.858;2023-05-12T04:54:09;97814.69;;;14.33;100.00
36190;BME280;22232;50.914;13.858;2023-05-12T04:56:37;97813.03;;;14.27;100.00
36190;BME280;22232;50.914;13.858;2023-05-12T04:59:05;97813.38;;;14.36;100.00
36190;BME280;22232;50.914;13.858;2023-05-12T05:01:33;97808.63;;;14.43;100.00
36190;BME280;22232;50.914;13.858;2023-05-12T05:04:01;97814.97;;;14.32;100.00
36190;BME280;22232;50.914;13.858;2023-05-12T05:06:29;97811.41;;;14.26;100.00
36190;BME280;22232;50.914;13.858;2023-05-12T05:08:58;97821.13;;;14.32;100.00
36190;BME280;22232;50.914;13.858;2023-05-12T05:11:26;97815.59;;;14.44;100.00
36190;BME280;22232;50.914;13.858;2023-05-12T05:13:53;97821.47;;;14.41;99.80
36190;BME280;22232;50.914;13.858;2023-05-12T05:16:22;97822.94;;;14.27;100.00
36190;BME280;22232;50.914;13.858;2023-05-12T05:18:50;97822.59;;;14.18;100.00
36190;BME280;22232;50.914;13.858;2023-05-12T05:21:18;97819.63;;;14.14;100.00
36190;BME280;22232;50.914;13.858;2023-05-12T05:23:46;97825.69;;;14.05;100.00
36190;BME280;22232;50.914;13.858;2023-05-12T05:26:14;97823.66;;;14.17;100.00
36190;BME280;22232;50.914;13.858;2023-05-12T05:28:42;97826.41;;;14.22;100.00
36190;BME280;22232;50.914;13.858;2023-05-12T05:31:16;97821.84;;;14.22;100.00
36190;BME280;22232;50.914;13.858;2023-05-12T05:33:43;97830.63;;;14.18;100.00
36190;BME280;22232;50.914;13.858;2023-05-12T05:36:12;97829.22;;;14.10;100.00
36190;BME280;22232;50.914;13.858;2023-05-12T05:38:39;97833.28;;;14.13;100.00
36190;BME280;22232;50.914;13.858;2023-05-12T05:41:08;97830.47;;;14.25;100.00
36190;BME280;22232;50.914;13.858;2023-05-12T05:43:35;97836.97;;;14.34;100.00
36190;BME280;22232;50.914;13.858;2023-05-12T05:46:03;97840.47;;;14.34;100.00
36190;BME280;22232;50.914;13.858;2023-05-12T05:48:31;97836.84;;;14.45;100.00
36190;BME280;22232;50.914;13.858;2023-05-12T05:50:59;97842.09;;;14.62;100.00
36190;BME280;22232;50.914;13.858;2023-05-12T05:53:27;97842.16;;;14.73;100.00
36190;BME280;22232;50.914;13.858;2023-05-12T05:55:54;97842.00;;;14.84;100.00
36190;BME280;22232;50.914;13.858;2023-05-12T05:58:22;97843.94;;;14.94;100.00
36190;BME280;22232;50.914;13.858;2023-05-12T06:00:50;97837.28;;;15.02;100.00
36190;BME280;22232;50.914;13.858;2023-05-12T06:03:18;97831.44;;;15.10;100.00
36190;BME280;22232;50.914;13.858;2023-05-12T06:05:46;97848.59;;;15.09;100.00
36190;BME280;22232;50.914;13.858;2023-05-12T06:08:15;97843.94;;;15.31;100.00
36190;BME280;22232;50.914;13.858;2023-05-12T06:10:43;97855.56;;;15.47;100.00
36190;BME280;22232;50.914;13.858;2023-05-12T06:13:10;97846.72;;;15.57;100.00
36190;BME280;22232;50.914;13.858;2023-05-12T06:15:38;97851.75;;;15.91;100.00
36190;BME280;22232;50.914;13.858;2023-05-12T06:18:06;97849.66;;;16.13;100.00
36190;BME280;22232;50.914;13.858;2023-05-12T06:20:33;97851.88;;;16.42;98.85
36190;BME280;22232;50.914;13.858;2023-05-12T06:23:01;97852.44;;;16.74;96.59
36190;BME280;22232;50.914;13.858;2023-05-12T06:25:28;97851.38;;;17.01;93.69
36190;BME280;22232;50.914;13.858;2023-05-12T06:27:56;97849.19;;;16.98;95.03
36190;BME280;22232;50.914;13.858;2023-05-12T06:30:23;97850.81;;;16.89;97.68
36190;BME280;22232;50.914;13.858;2023-05-12T06:32:53;97851.38;;;16.86;92.92
36190;BME280;22232;50.914;13.858;2023-05-12T06:35:22;97856.22;;;16.89;94.58
36190;BME280;22232;50.914;13.858;2023-05-12T06:37:49;97851.09;;;17.03;96.91
36190;BME280;22232;50.914;13.858;2023-05-12T06:40:17;97847.53;;;17.38;90.44
36190;BME280;22232;50.914;13.858;2023-05-12T06:42:45;97848.84;;;17.51;84.79
36190;BME280;22232;50.914;13.858;2023-05-12T06:45:18;97855.31;;;17.50;82.76
36190;BME280;22232;50.914;13.858;2023-05-12T06:47:46;97843.91;;;17.73;99.75
36190;BME280;22232;50.914;13.858;2023-05-12T06:50:14;97852.53;;;17.85;84.41
36190;BME280;22232;50.914;13.858;2023-05-12T06:52:43;97845.94;;;18.07;83.72
36190;BME280;22232;50.914;13.858;2023-05-12T06:55:11;97848.41;;;18.03;83.72
36190;BME280;22232;50.914;13.858;2023-05-12T06:57:39;97847.34;;;17.99;86.04
36190;BME280;22232;50.914;13.858;2023-05-12T07:00:08;97853.63;;;17.79;83.41
36190;BME280;22232;50.914;13.858;2023-05-12T07:02:36;97854.25;;;17.51;81.10
36190;BME280;22232;50.914;13.858;2023-05-12T07:05:04;97861.56;;;17.30;83.49
36190;BME280;22232;50.914;13.858;2023-05-12T07:07:32;97852.97;;;17.17;87.54
36190;BME280;22232;50.914;13.858;2023-05-12T07:09:59;97852.44;;;17.20;100.00
36190;BME280;22232;50.914;13.858;2023-05-12T07:12:27;97859.69;;;17.25;91.88
36190;BME280;22232;50.914;13.858;2023-05-12T07:14:54;97860.78;;;17.19;96.76
36190;BME280;22232;50.914;13.858;2023-05-12T07:17:22;97855.63;;;17.28;91.73
36190;BME280;22232;50.914;13.858;2023-05-12T07:19:50;97852.94;;;17.38;88.49
36190;BME280;22232;50.914;13.858;2023-05-12T07:22:18;97858.47;;;17.87;85.28
36190;BME280;22232;50.914;13.858;2023-05-12T07:24:49;97860.91;;;17.74;84.40
36190;BME280;22232;50.914;13.858;2023-05-12T07:27:16;97862.53;;;17.64;79.47
36190;BME280;22232;50.914;13.858;2023-05-12T07:29:44;97864.94;;;17.86;77.54
36190;BME280;22232;50.914;13.858;2023-05-12T07:32:11;97858.50;;;17.67;80.15
36190;BME280;22232;50.914;13.858;2023-05-12T07:34:39;97864.78;;;17.47;79.28
36190;BME280;22232;50.914;13.858;2023-05-12T07:37:07;97863.69;;;17.48;91.79
36190;BME280;22232;50.914;13.858;2023-05-12T07:39:34;97863.97;;;17.31;93.85
36190;BME280;22232;50.914;13.858;2023-05-12T07:42:02;97868.06;;;17.24;95.33
36190;BME280;22232;50.914;13.858;2023-05-12T07:44:29;97866.16;;;17.19;97.04
36190;BME280;22232;50.914;13.858;2023-05-12T07:46:59;97866.72;;;17.26;97.26
36190;BME280;22232;50.914;13.858;2023-05-12T07:49:27;97870.72;;;17.39;94.15
36190;BME280;22232;50.914;13.858;2023-05-12T07:51:54;97865.13;;;18.00;94.62
36190;BME280;22232;50.914;13.858;2023-05-12T07:54:22;97870.25;;;18.51;80.13
36190;BME280;22232;50.914;13.858;2023-05-12T07:56:49;97872.19;;;18.46;75.75
36190;BME280;22232;50.914;13.858;2023-05-12T07:59:17;97868.22;;;18.28;78.79
36190;BME280;22232;50.914;13.858;2023-05-12T08:01:45;97866.38;;;18.23;79.21
36190;BME280;22232;50.914;13.858;2023-05-12T08:04:12;97866.59;;;18.76;74.10
36190;BME280;22232;50.914;13.858;2023-05-12T08:06:40;97866.81;;;18.80;72.26
36190;BME280;22232;50.914;13.858;2023-05-12T08:09:08;97872.06;;;19.30;68.68
36190;BME280;22232;50.914;13.858;2023-05-12T08:11:35;97864.59;;;19.45;69.92
36190;BME280;22232;50.914;13.858;2023-05-12T08:14:03;97866.03;;;19.38;69.51
36190;BME280;22232;50.914;13.858;2023-05-12T08:16:30;97875.44;;;19.45;67.29
36190;BME280;22232;50.914;13.858;2023-05-12T08:18:58;97867.34;;;19.69;61.96
36190;BME280;22232;50.914;13.858;2023-05-12T08:21:25;97868.31;;;20.03;67.02
36190;BME280;22232;50.914;13.858;2023-05-12T08:23:54;97864.44;;;20.28;57.15
36190;BME280;22232;50.914;13.858;2023-05-12T08:26:22;97871.75;;;20.84;54.57
36190;BME280;22232;50.914;13.858;2023-05-12T08:28:50;97859.59;;;21.14;52.01
36190;BME280;22232;50.914;13.858;2023-05-12T08:31:18;97857.47;;;21.11;46.92
36190;BME280;22232;50.914;13.858;2023-05-12T08:33:46;97856.66;;;20.78;54.50
36190;BME280;22232;50.914;13.858;2023-05-12T08:36:25;97852.34;;;21.56;48.16
36190;BME280;22232;50.914;13.858;2023-05-12T08:38:53;97862.59;;;21.59;46.00
36190;BME280;22232;50.914;13.858;2023-05-12T08:41:43;97854.34;;;21.92;48.81
36190;BME280;22232;50.914;13.858;2023-05-12T08:44:11;97858.88;;;21.55;47.81
36190;BME280;22232;50.914;13.858;2023-05-12T08:46:39;97854.81;;;20.92;45.43
36190;BME280;22232;50.914;13.858;2023-05-12T08:49:09;97861.94;;;20.50;48.81
36190;BME280;22232;50.914;13.858;2023-05-12T08:51:46;97870.28;;;19.97;52.39
36190;BME280;22232;50.914;13.858;2023-05-12T08:54:26;97875.84;;;19.58;58.04
36190;BME280;22232;50.914;13.858;2023-05-12T08:56:55;97870.69;;;19.56;58.12
36190;BME280;22232;50.914;13.858;2023-05-12T08:59:26;97867.94;;;19.37;54.66
36190;BME280;22232;50.914;13.858;2023-05-12T09:01:53;97877.56;;;19.48;53.03
36190;BME280;22232;50.914;13.858;2023-05-12T09:04:21;97868.53;;;20.06;50.73
36190;BME280;22232;50.914;13.858;2023-05-12T09:06:49;97865.56;;;20.46;48.07
36190;BME280;22232;50.914;13.858;2023-05-12T09:09:20;97862.66;;;20.94;46.26
36190;BME280;22232;50.914;13.858;2023-05-12T09:11:50;97872.47;;;21.55;45.77
36190;BME280;22232;50.914;13.858;2023-05-12T09:14:24;97865.59;;;21.44;45.14
36190;BME280;22232;50.914;13.858;2023-05-12T09:17:03;97862.69;;;21.82;46.52
36190;BME280;22232;50.914;13.858;2023-05-12T09:19:31;97866.81;;;22.07;44.65
36190;BME280;22232;50.914;13.858;2023-05-12T09:22:00;97868.72;;;21.79;45.59
36190;BME280;22232;50.914;13.858;2023-05-12T09:24:35;97868.59;;;22.11;43.50
36190;BME280;22232;50.914;13.858;2023-05-12T09:27:03;97877.19;;;21.49;43.01
36190;BME280;22232;50.914;13.858;2023-05-12T09:29:31;97875.47;;;21.40;49.43
36190;BME280;22232;50.914;13.858;2023-05-12T09:32:11;97869.84;;;21.50;45.93
36190;BME280;22232;50.914;13.858;2023-05-12T09:34:38;97877.59;;;21.70;42.02
36190;BME280;22232;50.914;13.858;2023-05-12T09:37:07;97880.31;;;21.24;40.92
36190;BME280;22232;50.914;13.858;2023-05-12T09:39:35;97878.22;;;20.88;41.99
36190;BME280;22232;50.914;13.858;2023-05-12T09:42:09;97868.50;;;21.01;42.71
36190;BME280;22232;50.914;13.858;2023-05-12T09:44:38;97879.50;;;20.91;42.41
36190;BME280;22232;50.914;13.858;2023-05-12T09:47:07;97873.75;;;20.59;46.87
36190;BME280;22232;50.914;13.858;2023-05-12T09:49:36;97887.41;;;19.63;44.40
36190;BME280;22232;50.914;13.858;2023-05-12T09:52:04;97880.50;;;19.52;46.87
36190;BME280;22232;50.914;13.858;2023-05-12T09:54:32;97884.34;;;19.46;46.89
36190;BME280;22232;50.914;13.858;2023-05-12T09:57:02;97882.81;;;19.64;46.90
36190;BME280;22232;50.914;13.858;2023-05-12T09:59:34;97887.69;;;19.62;48.11
36190;BME280;22232;50.914;13.858;2023-05-12T10:02:04;97880.28;;;20.39;44.36
36190;BME280;22232;50.914;13.858;2023-05-12T10:05:04;97878.41;;;20.92;44.43
36190;BME280;22232;50.914;13.858;2023-05-12T10:07:33;97871.34;;;20.58;45.33
36190;BME280;22232;50.914;13.858;2023-05-12T10:10:02;97880.59;;;20.90;43.01
36190;BME280;22232;50.914;13.858;2023-05-12T10:12:31;97884.69;;;20.73;40.31
36190;BME280;22232;50.914;13.858;2023-05-12T10:15:02;97879.38;;;20.44;43.74
36190;BME280;22232;50.914;13.858;2023-05-12T10:17:30;97883.22;;;20.62;44.04
36190;BME280;22232;50.914;13.858;2023-05-12T10:19:58;97879.69;;;20.43;44.61
36190;BME280;22232;50.914;13.858;2023-05-12T10:22:27;97873.81;;;20.35;43.07
36190;BME280;22232;50.914;13.858;2023-05-12T10:24:57;97885.06;;;20.05;46.29
36190;BME280;22232;50.914;13.858;2023-05-12T10:27:26;97889.25;;;20.16;46.22
36190;BME280;22232;50.914;13.858;2023-05-12T10:29:55;97867.22;;;20.79;46.53
36190;BME280;22232;50.914;13.858;2023-05-12T10:32:23;97864.00;;;20.39;45.94
36190;BME280;22232;50.914;13.858;2023-05-12T10:34:50;97885.06;;;20.05;45.33
36190;BME280;22232;50.914;13.858;2023-05-12T10:37:18;97875.31;;;20.04;48.53
36190;BME280;22232;50.914;13.858;2023-05-12T10:39:47;97874.22;;;20.67;46.12
36190;BME280;22232;50.914;13.858;2023-05-12T10:42:16;97869.44;;;21.24;41.97
36190;BME280;22232;50.914;13.858;2023-05-12T10:44:53;97869.50;;;21.05;43.98
36190;BME280;22232;50.914;13.858;2023-05-12T10:47:25;97872.88;;;20.83;44.21
36190;BME280;22232;50.914;13.858;2023-05-12T10:50:02;97872.63;;;20.42;45.31
36190;BME280;22232;50.914;13.858;2023-05-12T10:52:30;97877.09;;;20.13;43.34
36190;BME280;22232;50.914;13.858;2023-05-12T10:55:01;97871.63;;;20.56;44.43
36190;BME280;22232;50.914;13.858;2023-05-12T10:57:30;97882.94;;;20.21;47.57
36190;BME280;22232;50.914;13.858;2023-05-12T11:00:00;97879.97;;;19.79;48.26
36190;BME280;22232;50.914;13.858;2023-05-12T11:02:30;97873.94;;;19.58;47.91
36190;BME280;22232;50.914;13.858;2023-05-12T11:05:03;97884.00;;;19.82;46.81
36190;BME280;22232;50.914;13.858;2023-05-12T11:07:37;97880.22;;;20.02;48.76
36190;BME280;22232;50.914;13.858;2023-05-12T11:10:06;97877.22;;;19.55;50.68
36190;BME280;22232;50.914;13.858;2023-05-12T11:12:34;97881.97;;;19.39;49.91
36190;BME280;22232;50.914;13.858;2023-05-12T11:15:04;97886.91;;;19.03;50.85
36190;BME280;22232;50.914;13.858;2023-05-12T11:17:32;97877.59;;;19.43;48.47
36190;BME280;22232;50.914;13.858;2023-05-12T11:20:00;97879.50;;;19.43;49.51
36190;BME280;22232;50.914;13.858;2023-05-12T11:22:28;97875.06;;;19.28;50.33
36190;BME280;22232;50.914;13.858;2023-05-12T11:24:55;97872.38;;;19.52;51.25
36190;BME280;22232;50.914;13.858;2023-05-12T11:27:23;97878.06;;;19.80;48.85
36190;BME280;22232;50.914;13.858;2023-05-12T11:29:59;97871.16;;;19.39;49.73
36190;BME280;22232;50.914;13.858;2023-05-12T11:32:28;97872.59;;;19.56;50.12
36190;BME280;22232;50.914;13.858;2023-05-12T11:35:15;97870.63;;;19.66;48.41
36190;BME280;22232;50.914;13.858;2023-05-12T11:37:44;97873.00;;;19.73;47.36
36190;BME280;22232;50.914;13.858;2023-05-12T11:40:19;97869.91;;;19.56;48.86
36190;BME280;22232;50.914;13.858;2023-05-12T11:42:49;97874.84;;;19.48;47.82
36190;BME280;22232;50.914;13.858;2023-05-12T11:47:49;97868.16;;;20.51;46.82
36190;BME280;22232;50.914;13.858;2023-05-12T11:50:23;97869.97;;;20.93;46.15
36190;BME280;22232;50.914;13.858;2023-05-12T11:52:51;97865.53;;;21.76;46.82
36190;BME280;22232;50.914;13.858;2023-05-12T11:55:21;97871.66;;;21.82;45.09
36190;BME280;22232;50.914;13.858;2023-05-12T11:57:57;97866.63;;;21.89;43.59
36190;BME280;22232;50.914;13.858;2023-05-12T12:00:27;97868.72;;;21.37;42.09
36190;BME280;22232;50.914;13.858;2023-05-12T12:03:24;97874.06;;;20.91;41.13
36190;BME280;22232;50.914;13.858;2023-05-12T12:06:02;97871.47;;;20.48;43.29
36190;BME280;22232;50.914;13.858;2023-05-12T12:08:33;97869.00;;;20.70;48.10
36190;BME280;22232;50.914;13.858;2023-05-12T12:11:00;97877.16;;;21.03;43.25
36190;BME280;22232;50.914;13.858;2023-05-12T12:13:30;97876.09;;;21.31;42.32
36190;BME280;22232;50.914;13.858;2023-05-12T12:15:57;97877.75;;;20.81;40.90
36190;BME280;22232;50.914;13.858;2023-05-12T12:18:25;97876.78;;;21.23;41.47
36190;BME280;22232;50.914;13.858;2023-05-12T12:20:53;97877.63;;;20.72;42.44
36190;BME280;22232;50.914;13.858;2023-05-12T12:23:20;97877.63;;;20.72;42.56
36190;BME280;22232;50.914;13.858;2023-05-12T12:25:48;97884.72;;;20.87;42.20
36190;BME280;22232;50.914;13.858;2023-05-12T12:28:15;97878.47;;;21.38;43.80
36190;BME280;22232;50.914;13.858;2023-05-12T12:30:43;97880.09;;;21.81;42.06
36190;BME280;22232;50.914;13.858;2023-05-12T12:33:10;97883.91;;;22.21;38.75
36190;BME280;22232;50.914;13.858;2023-05-12T12:35:39;97874.53;;;22.13;41.01
36190;BME280;22232;50.914;13.858;2023-05-12T12:38:06;97885.84;;;21.19;39.45
36190;BME280;22232;50.914;13.858;2023-05-12T12:40:35;97878.19;;;21.21;40.41
36190;BME280;22232;50.914;13.858;2023-05-12T12:43:02;97878.25;;;21.48;39.63
36190;BME280;22232;50.914;13.858;2023-05-12T12:45:30;97889.97;;;21.30;40.39
36190;BME280;22232;50.914;13.858;2023-05-12T12:47:58;97882.81;;;20.50;43.57
36190;BME280;22232;50.914;13.858;2023-05-12T12:50:26;97898.19;;;19.92;45.87
36190;BME280;22232;50.914;13.858;2023-05-12T12:52:53;97897.16;;;19.35;47.72
36190;BME280;22232;50.914;13.858;2023-05-12T12:55:21;97895.94;;;18.88;47.42
36190;BME280;22232;50.914;13.858;2023-05-12T12:57:49;97882.28;;;18.69;50.31
36190;BME280;22232;50.914;13.858;2023-05-12T13:00:17;97896.16;;;18.57;50.39